createdAt,value
2022-11-22T00:00:55.078Z,124.20
2022-11-22T00:03:21.909Z,111.50
2022-11-22T00:05:48.306Z,104.50
2022-11-22T00:08:14.781Z,102.80
2022-11-22T00:10:41.222Z,102.70
2022-11-22T00:13:07.960Z,113.70
2022-11-22T00:15:34.434Z,112.30
2022-11-22T00:18:01.120Z,105.20
2022-11-22T00:20:27.779Z,108.50
2022-11-22T00:22:56.353Z,105.10
2022-11-22T00:25:22.904Z,131.40
2022-11-22T00:27:49.338Z,147.70
2022-11-22T00:30:16.286Z,137.10
2022-11-22T00:32:42.824Z,116.80
2022-11-22T00:35:10.908Z,113.30
2022-11-22T00:37:37.746Z,109.30
2022-11-22T00:40:06.256Z,114.50
2022-11-22T00:42:32.844Z,113.60
2022-11-22T00:44:59.274Z,117.10
2022-11-22T00:47:25.737Z,111.90
2022-11-22T00:49:52.342Z,108.60
2022-11-22T00:52:18.742Z,111.80
2022-11-22T00:54:48.767Z,95.70
2022-11-22T00:57:17.985Z,92.80
2022-11-22T00:59:44.680Z,107.00
2022-11-22T01:02:11.323Z,108.20
2022-11-22T01:04:37.857Z,110.30
2022-11-22T01:07:04.335Z,106.00
2022-11-22T01:09:31.352Z,107.20
2022-11-22T01:11:58.326Z,102.00
2022-11-22T01:14:24.778Z,107.20
2022-11-22T01:16:51.266Z,99.00
2022-11-22T01:19:17.792Z,106.80
2022-11-22T01:21:44.335Z,105.70
2022-11-22T01:24:10.785Z,96.70
2022-11-22T01:26:37.306Z,97.40
2022-11-22T01:29:04.801Z,98.30
2022-11-22T01:31:31.327Z,95.50
2022-11-22T01:33:58.963Z,91.50
2022-11-22T01:36:26.651Z,86.00
2022-11-22T01:38:53.077Z,85.80
2022-11-22T01:41:19.839Z,86.00
2022-11-22T01:43:46.281Z,93.20
2022-11-22T01:46:26.072Z,88.80
2022-11-22T01:48:55.330Z,90.30
2022-11-22T01:51:32.602Z,88.90
2022-11-22T01:54:03.008Z,85.60
2022-11-22T01:56:30.703Z,85.50
2022-11-22T01:59:02.902Z,81.20
2022-11-22T02:01:30.260Z,99.00
2022-11-22T02:04:00.563Z,99.10
2022-11-22T02:06:58.018Z,98.30
2022-11-22T02:09:24.873Z,91.40
2022-11-22T02:11:54.577Z,90.60
2022-11-22T02:14:27.382Z,88.70
2022-11-22T02:16:54.509Z,87.80
2022-11-22T02:19:39.422Z,91.40
2022-11-22T02:22:46.147Z,114.70
2022-11-22T02:25:27.972Z,97.20
2022-11-22T02:27:54.463Z,98.10
2022-11-22T02:30:21.001Z,94.00
2022-11-22T02:32:47.885Z,92.10
2022-11-22T02:35:25.974Z,103.10
2022-11-22T02:37:58.984Z,97.30
2022-11-22T02:40:27.661Z,97.80
2022-11-22T02:43:04.583Z,102.50
2022-11-22T02:45:31.202Z,99.70
2022-11-22T02:48:06.339Z,107.50
2022-11-22T02:50:32.776Z,93.90
2022-11-22T02:52:59.218Z,89.40
2022-11-22T02:55:25.762Z,82.70
2022-11-22T02:57:52.190Z,90.60
2022-11-22T03:00:19.211Z,84.60
2022-11-22T03:02:45.679Z,84.70
2022-11-22T03:05:12.232Z,78.40
2022-11-22T03:07:38.704Z,78.90
2022-11-22T03:10:05.917Z,71.70
2022-11-22T03:12:32.423Z,64.00
2022-11-22T03:14:58.810Z,68.70
2022-11-22T03:17:25.265Z,67.50
2022-11-22T03:19:51.769Z,73.50
2022-11-22T03:22:18.215Z,73.80
2022-11-22T03:24:44.717Z,78.40
2022-11-22T03:27:11.182Z,80.80
2022-11-22T03:29:37.718Z,88.80
2022-11-22T03:32:04.151Z,97.60
2022-11-22T03:34:30.521Z,96.10
2022-11-22T03:36:56.959Z,90.60
2022-11-22T03:39:24.091Z,95.00
2022-11-22T03:41:50.521Z,92.40
2022-11-22T03:44:17.056Z,110.20
2022-11-22T03:46:43.592Z,103.00
2022-11-22T03:49:11.057Z,112.50
2022-11-22T03:51:37.591Z,115.90
2022-11-22T03:54:04.228Z,114.70
2022-11-22T03:56:30.866Z,147.30
2022-11-22T03:58:57.296Z,149.30
2022-11-22T04:01:23.920Z,146.20
2022-11-22T04:03:50.583Z,140.40
2022-11-22T04:06:17.015Z,114.90
2022-11-22T04:08:43.638Z,116.30
2022-11-22T04:11:10.156Z,120.90
2022-11-22T04:13:36.578Z,111.40
2022-11-22T04:16:03.036Z,89.00
2022-11-22T04:18:29.495Z,98.90
2022-11-22T04:20:55.936Z,98.30
2022-11-22T04:23:26.221Z,102.70
2022-11-22T04:25:56.282Z,86.10
2022-11-22T04:28:35.213Z,94.70
2022-11-22T04:31:11.477Z,86.60
2022-11-22T04:33:38.013Z,90.10
2022-11-22T04:36:07.732Z,86.50
2022-11-22T04:38:38.437Z,85.10
2022-11-22T04:41:04.892Z,79.40
2022-11-22T04:43:31.326Z,80.60
2022-11-22T04:45:57.867Z,78.20
2022-11-22T04:48:24.294Z,88.50
2022-11-22T04:50:50.853Z,73.40
2022-11-22T04:53:18.710Z,74.90
2022-11-22T04:55:47.164Z,93.80
2022-11-22T04:58:13.934Z,89.30
2022-11-22T05:00:40.614Z,90.80
2022-11-22T05:03:08.030Z,90.30
2022-11-22T05:05:36.717Z,92.80
2022-11-22T05:08:03.928Z,103.80
2022-11-22T05:10:30.419Z,102.00
2022-11-22T05:12:56.961Z,96.30
2022-11-22T05:15:23.418Z,89.40
2022-11-22T05:17:49.843Z,96.00
2022-11-22T05:20:16.470Z,89.20
2022-11-22T05:22:43.009Z,93.70
2022-11-22T05:25:09.852Z,93.20
2022-11-22T05:27:36.592Z,95.30
2022-11-22T05:30:04.199Z,102.60
2022-11-22T05:32:31.919Z,99.50
2022-11-22T05:34:58.855Z,96.30
2022-11-22T05:37:26.213Z,97.90
2022-11-22T05:39:52.776Z,88.70
2022-11-22T05:42:19.320Z,90.60
2022-11-22T05:44:45.924Z,70.90
2022-11-22T05:47:12.881Z,76.00
2022-11-22T05:49:39.291Z,77.90
2022-11-22T05:52:05.955Z,70.40
2022-11-22T05:54:32.424Z,78.20
2022-11-22T05:56:58.968Z,73.50
2022-11-22T05:59:25.370Z,74.60
2022-11-22T06:01:51.993Z,68.70
2022-11-22T06:04:18.690Z,76.00
2022-11-22T06:06:47.114Z,82.10
2022-11-22T06:09:13.631Z,76.60
2022-11-22T06:11:40.026Z,77.30
2022-11-22T06:14:09.256Z,72.00
2022-11-22T06:16:36.004Z,73.40
2022-11-22T06:19:02.405Z,70.00
2022-11-22T06:21:28.875Z,62.70
2022-11-22T06:23:56.019Z,75.30
2022-11-22T06:26:23.921Z,72.40
2022-11-22T06:28:51.489Z,61.80
2022-11-22T06:31:20.777Z,71.60
2022-11-22T06:33:47.432Z,69.50
2022-11-22T06:36:20.069Z,69.10
2022-11-22T06:38:47.153Z,66.90
2022-11-22T06:41:16.530Z,61.80
2022-11-22T06:43:48.752Z,63.80
2022-11-22T06:46:18.297Z,56.00
2022-11-22T06:48:45.587Z,55.40
2022-11-22T06:51:17.060Z,54.20
2022-11-22T06:53:47.816Z,57.30
2022-11-22T06:56:18.031Z,50.30
2022-11-22T06:58:45.392Z,53.30
2022-11-22T07:01:24.671Z,49.80
2022-11-22T07:03:52.091Z,49.30
2022-11-22T07:06:19.367Z,53.10
2022-11-22T07:08:46.696Z,49.60
2022-11-22T07:11:16.600Z,48.40
2022-11-22T07:13:43.364Z,55.60
2022-11-22T07:16:12.303Z,53.10
2022-11-22T07:18:39.086Z,50.90
2022-11-22T07:21:13.511Z,52.60
2022-11-22T07:23:42.778Z,59.10
2022-11-22T07:26:10.202Z,59.20
2022-11-22T07:28:37.539Z,55.80
2022-11-22T07:31:06.656Z,57.20
2022-11-22T07:33:33.893Z,54.70
2022-11-22T07:36:10.283Z,55.70
2022-11-22T07:38:37.684Z,50.20
2022-11-22T07:41:05.614Z,47.30
2022-11-22T07:43:32.650Z,53.70
2022-11-22T07:46:04.191Z,45.90
2022-11-22T07:50:57.312Z,52.80
2022-11-22T07:53:23.786Z,58.70
2022-11-22T07:55:50.196Z,82.10
2022-11-22T07:58:16.731Z,85.40
2022-11-22T08:00:43.141Z,80.50
2022-11-22T08:03:09.714Z,72.60
2022-11-22T08:05:36.157Z,71.80
2022-11-22T08:08:02.698Z,63.00
2022-11-22T08:10:29.130Z,66.90
2022-11-22T08:12:59.514Z,67.10
2022-11-22T08:15:26.819Z,72.70
2022-11-22T08:17:53.475Z,60.40
2022-11-22T08:20:20.003Z,64.20
2022-11-22T08:22:46.443Z,61.10
2022-11-22T08:25:12.865Z,67.20
2022-11-22T08:27:43.953Z,56.10
2022-11-22T08:30:11.487Z,51.60
2022-11-22T08:32:38.559Z,53.10
2022-11-22T08:35:05.915Z,44.00
2022-11-22T08:37:32.664Z,38.80
2022-11-22T08:39:59.167Z,37.50
2022-11-22T08:42:25.852Z,39.00
2022-11-22T08:44:52.296Z,34.50
2022-11-22T08:47:18.831Z,32.60
2022-11-22T08:49:45.374Z,33.20
2022-11-22T08:52:11.763Z,32.60
2022-11-22T08:54:38.658Z,29.90
2022-11-22T08:57:05.713Z,28.00
2022-11-22T08:59:32.973Z,26.10
2022-11-22T09:01:59.987Z,26.10
2022-11-22T09:04:26.578Z,27.50
2022-11-22T09:09:39.759Z,28.90
2022-11-22T09:12:09.050Z,27.80
2022-11-22T09:14:35.668Z,26.30
2022-11-22T09:17:02.078Z,28.60
2022-11-22T09:19:28.660Z,27.00
2022-11-22T09:21:55.475Z,26.40
2022-11-22T09:24:22.039Z,28.00
2022-11-22T09:26:48.683Z,25.90
2022-11-22T09:29:15.121Z,25.60
2022-11-22T09:31:41.606Z,25.40
2022-11-22T09:34:08.095Z,24.30
2022-11-22T09:36:38.220Z,19.10
2022-11-22T09:39:04.761Z,17.30
2022-11-22T09:41:49.223Z,18.20
2022-11-22T09:44:36.347Z,39.70
2022-11-22T09:47:29.346Z,18.80
2022-11-22T09:50:18.683Z,16.50
2022-11-22T09:52:59.261Z,18.50
2022-11-22T09:55:28.654Z,16.60
2022-11-22T09:58:10.023Z,16.00
2022-11-22T10:03:33.646Z,14.10
2022-11-22T10:06:05.240Z,13.70
2022-11-22T10:08:44.148Z,14.00
2022-11-22T10:11:26.046Z,11.70
2022-11-22T10:13:57.782Z,11.90
2022-11-22T10:16:44.106Z,10.40
2022-11-22T10:19:16.376Z,9.50
2022-11-22T10:21:45.502Z,10.80
2022-11-22T10:24:15.888Z,9.80
2022-11-22T10:26:42.998Z,10.50
2022-11-22T10:29:28.813Z,9.40
2022-11-22T10:32:25.828Z,9.60
2022-11-22T10:35:16.127Z,10.20
2022-11-22T10:38:01.075Z,9.80
2022-11-22T10:40:48.228Z,15.80
2022-11-22T10:43:24.034Z,13.40
2022-11-22T10:46:01.996Z,12.70
2022-11-22T10:48:40.945Z,11.40
2022-11-22T10:51:20.703Z,11.70
2022-11-22T10:54:04.065Z,10.80
2022-11-22T10:56:38.033Z,10.30
2022-11-22T10:59:14.773Z,15.10
2022-11-22T11:02:15.474Z,9.90
2022-11-22T11:04:43.236Z,8.80
2022-11-22T11:07:16.991Z,8.50
2022-11-22T11:10:11.547Z,6.40
2022-11-22T11:13:06.033Z,4.70
2022-11-22T11:15:42.402Z,3.70
2022-11-22T11:18:17.067Z,4.10
2022-11-22T11:20:43.699Z,4.10
2022-11-22T11:23:15.161Z,5.70
2022-11-22T11:25:44.767Z,3.20
2022-11-22T11:28:22.992Z,3.30
2022-11-22T11:31:09.381Z,3.30
2022-11-22T11:33:38.491Z,5.10
2022-11-22T11:36:10.853Z,4.90
2022-11-22T11:38:43.126Z,5.80
2022-11-22T11:41:23.285Z,5.40
2022-11-22T11:43:51.678Z,3.90
2022-11-22T11:46:23.779Z,4.00
2022-11-22T11:48:52.391Z,4.20
2022-11-22T11:51:35.822Z,4.10
2022-11-22T11:54:24.261Z,2.80
2022-11-22T11:56:57.938Z,4.10
2022-11-22T11:59:31.575Z,4.50
2022-11-22T12:02:11.896Z,3.10
2022-11-22T12:04:51.478Z,2.70
2022-11-22T12:07:48.973Z,3.40
2022-11-22T12:10:34.548Z,3.70
2022-11-22T12:13:12.921Z,3.40
2022-11-22T12:15:50.407Z,3.40
2022-11-22T12:18:44.113Z,3.50
2022-11-22T12:21:35.520Z,4.00
2022-11-22T12:24:41.332Z,3.30
2022-11-22T12:26:57.687Z,8.30
2022-11-22T12:29:24.636Z,4.50
2022-11-22T12:32:04.874Z,3.70
2022-11-22T12:35:03.182Z,10.00
2022-11-22T12:37:42.021Z,4.30
2022-11-22T12:40:19.953Z,2.90
2022-11-22T12:42:46.405Z,10.40
2022-11-22T12:45:23.046Z,7.90
2022-11-22T12:47:52.218Z,8.80
2022-11-22T12:50:27.801Z,4.60
2022-11-22T12:53:05.092Z,3.90
2022-11-22T12:55:51.199Z,3.20
2022-11-22T12:58:45.301Z,3.20
2022-11-22T13:01:34.829Z,3.10
2022-11-22T13:04:15.939Z,3.30
2022-11-22T13:06:51.592Z,3.20
2022-11-22T13:09:34.721Z,3.90
2022-11-22T13:12:04.620Z,3.40
2022-11-22T13:14:39.258Z,3.40
2022-11-22T13:17:12.068Z,3.80
2022-11-22T13:19:47.269Z,3.80
2022-11-22T13:22:25.841Z,3.50
2022-11-22T13:25:11.109Z,3.20
2022-11-22T13:27:45.048Z,2.90
2022-11-22T13:30:19.451Z,3.70
2022-11-22T13:32:50.862Z,4.20
2022-11-22T13:35:23.916Z,3.80
2022-11-22T13:37:54.423Z,3.50
2022-11-22T13:40:43.836Z,4.20
2022-11-22T13:43:21.959Z,3.90
2022-11-22T13:45:59.313Z,4.60
2022-11-22T13:48:41.031Z,4.40
2022-11-22T13:51:16.050Z,7.60
2022-11-22T13:53:44.434Z,5.40
2022-11-22T13:56:17.127Z,4.40
2022-11-22T13:58:54.128Z,3.50
2022-11-22T14:01:51.437Z,7.70
2022-11-22T14:04:17.835Z,7.10
2022-11-22T14:06:49.267Z,7.60
2022-11-22T14:12:03.123Z,6.80
2022-11-22T14:14:47.864Z,7.40
2022-11-22T14:17:42.374Z,6.60
2022-11-22T14:20:27.260Z,7.70
2022-11-22T14:23:38.138Z,7.60
2022-11-22T14:26:44.855Z,8.60
2022-11-22T14:29:33.357Z,8.80
2022-11-22T14:32:13.749Z,8.30
2022-11-22T14:35:05.297Z,8.50
2022-11-22T14:37:31.829Z,9.00
2022-11-22T14:40:07.468Z,11.10
2022-11-22T14:42:36.766Z,9.30
2022-11-22T14:45:09.348Z,10.40
2022-11-22T14:47:41.934Z,10.50
2022-11-22T14:50:37.550Z,11.30
2022-11-22T14:53:44.025Z,14.00
2022-11-22T14:56:22.838Z,12.00
2022-11-22T14:59:02.908Z,12.90
2022-11-22T15:01:57.056Z,13.50
2022-11-22T15:09:11.957Z,14.00
2022-11-22T15:09:17.239Z,19.10
2022-11-22T15:10:58.151Z,22.10
2022-11-22T15:14:08.955Z,26.40
2022-11-22T15:59:43.074Z,48.30
2022-11-22T16:02:21.365Z,45.40
2022-11-22T16:06:06.046Z,39.40
2022-11-22T16:07:41.094Z,40.30
2022-11-22T16:10:24.504Z,42.60
2022-11-22T16:12:52.430Z,46.90
2022-11-22T16:15:30.094Z,44.80
2022-11-22T16:18:01.839Z,50.40
2022-11-22T16:20:31.468Z,52.20
2022-11-22T16:23:12.983Z,49.40
2022-11-22T16:25:48.697Z,48.10
2022-11-22T16:28:29.261Z,48.60
2022-11-22T16:30:58.167Z,51.10
2022-11-22T16:33:24.991Z,52.60
2022-11-22T16:35:56.353Z,51.60
2022-11-22T16:38:24.020Z,62.90
2022-11-22T16:40:52.094Z,58.80
2022-11-22T16:43:21.604Z,63.50
2022-11-22T16:45:48.958Z,60.40
2022-11-22T16:48:31.821Z,59.80
2022-11-22T16:51:05.051Z,67.30
2022-11-22T16:53:44.537Z,54.80
2022-11-22T16:56:26.131Z,57.90
2022-11-22T17:01:24.762Z,77.50
2022-11-22T17:03:55.385Z,59.40
2022-11-22T17:06:24.446Z,56.90
2022-11-22T17:08:52.806Z,59.40
2022-11-22T17:11:22.167Z,72.90
2022-11-22T17:13:49.003Z,62.90
2022-11-22T17:16:16.159Z,63.10
2022-11-22T17:18:42.709Z,54.40
2022-11-22T17:21:30.211Z,55.90
2022-11-22T17:24:02.192Z,66.50
2022-11-22T17:26:29.446Z,60.40
2022-11-22T17:28:56.089Z,59.20
2022-11-22T17:31:22.890Z,54.60
2022-11-22T17:33:54.827Z,54.50
2022-11-22T17:36:35.677Z,57.90
2022-11-22T17:39:07.935Z,71.00
2022-11-22T17:41:34.602Z,76.10
2022-11-22T17:44:02.157Z,73.90
2022-11-22T17:46:29.714Z,102.90
2022-11-22T17:49:01.462Z,104.40
2022-11-22T17:51:29.663Z,82.80
2022-11-22T17:53:56.817Z,74.40
2022-11-22T17:56:23.255Z,65.00
2022-11-22T17:58:50.196Z,64.10
2022-11-22T18:01:21.816Z,65.30
2022-11-22T18:03:49.000Z,75.00
2022-11-22T18:06:16.695Z,71.70
2022-11-22T18:08:46.850Z,89.60
2022-11-22T18:11:14.563Z,87.20
2022-11-22T18:13:41.536Z,78.90
2022-11-22T18:16:10.949Z,80.40
2022-11-22T18:18:56.109Z,89.70
2022-11-22T18:21:23.563Z,81.30
2022-11-22T18:23:50.800Z,96.20
2022-11-22T18:26:38.336Z,92.00
2022-11-22T18:31:52.979Z,71.20
2022-11-22T18:34:20.450Z,99.90
2022-11-22T18:37:04.294Z,113.80
2022-11-22T18:39:35.059Z,88.10
2022-11-22T18:42:02.754Z,81.10
2022-11-22T18:44:29.392Z,82.30
2022-11-22T18:46:55.878Z,83.00
2022-11-22T18:49:22.663Z,78.50
2022-11-22T18:51:49.157Z,70.40
2022-11-22T18:54:15.679Z,69.70
2022-11-22T18:56:42.199Z,73.80
2022-11-22T18:59:11.199Z,93.30
2022-11-22T19:01:37.829Z,90.40
2022-11-22T19:04:05.143Z,94.40
2022-11-22T19:06:31.643Z,110.60
2022-11-22T19:08:58.490Z,113.30
2022-11-22T19:11:25.967Z,98.60
2022-11-22T19:13:52.386Z,82.50
2022-11-22T19:16:21.470Z,92.80
2022-11-22T19:18:48.927Z,77.90
2022-11-22T19:21:18.171Z,91.30
2022-11-22T19:23:45.595Z,75.70
2022-11-22T19:26:15.098Z,70.50
2022-11-22T19:28:42.565Z,74.70
2022-11-22T19:31:18.113Z,75.70
2022-11-22T19:33:45.680Z,72.50
2022-11-22T19:36:33.767Z,79.40
2022-11-22T19:39:03.127Z,83.70
2022-11-22T19:41:29.827Z,82.80
2022-11-22T19:43:58.368Z,77.50
2022-11-22T19:46:25.660Z,72.60
2022-11-22T19:48:53.512Z,78.00
2022-11-22T19:51:20.324Z,75.00
2022-11-22T19:54:31.422Z,96.50
2022-11-22T19:56:58.012Z,73.30
2022-11-22T19:59:24.612Z,100.00
2022-11-22T20:01:51.025Z,116.40
2022-11-22T20:04:17.456Z,97.30
2022-11-22T20:06:48.642Z,76.70
2022-11-22T20:09:16.599Z,72.40
2022-11-22T20:11:43.025Z,76.80
2022-11-22T20:14:09.644Z,96.60
2022-11-22T20:16:37.856Z,97.30
2022-11-22T20:19:05.826Z,112.00
2022-11-22T20:21:34.109Z,76.70
2022-11-22T20:24:01.161Z,71.90
2022-11-22T20:26:28.929Z,92.20
2022-11-22T20:29:06.415Z,82.00
2022-11-22T20:31:35.202Z,78.80
2022-11-22T20:34:02.463Z,87.10
2022-11-22T20:36:32.036Z,69.20
2022-11-22T20:38:59.241Z,112.80
2022-11-22T20:41:28.409Z,79.80
2022-11-22T20:43:54.910Z,76.30
2022-11-22T20:46:23.982Z,99.90
2022-11-22T20:48:51.439Z,78.80
2022-11-22T20:51:21.856Z,81.80
2022-11-22T20:53:48.665Z,81.40
2022-11-22T20:56:15.677Z,75.80
2022-11-22T20:58:43.239Z,77.90
2022-11-22T21:01:14.583Z,86.00
2022-11-22T21:03:41.204Z,73.10
2022-11-22T21:06:07.986Z,75.30
2022-11-22T21:08:34.499Z,63.60
2022-11-22T21:11:06.155Z,67.70
2022-11-22T21:13:33.411Z,65.50
2022-11-22T21:16:15.622Z,66.30
2022-11-22T21:18:54.272Z,63.00
2022-11-22T21:21:22.526Z,67.00
2022-11-22T21:23:56.703Z,65.50
2022-11-22T21:26:24.459Z,70.80
2022-11-22T21:28:51.581Z,68.50
2022-11-22T21:31:19.151Z,66.90
2022-11-22T21:33:45.946Z,64.60
2022-11-22T21:36:13.443Z,65.90
2022-11-22T21:38:40.081Z,65.30
2022-11-22T21:41:38.155Z,62.30
2022-11-22T21:43:58.541Z,67.80
2022-11-22T21:46:25.001Z,67.00
2022-11-22T21:48:51.524Z,70.00
2022-11-22T21:51:18.065Z,67.00
2022-11-22T21:53:44.525Z,64.90
2022-11-22T21:56:11.253Z,68.60
2022-11-22T21:58:37.790Z,66.20
2022-11-22T22:01:08.267Z,65.80
2022-11-22T22:03:37.513Z,68.10
2022-11-22T22:06:04.053Z,65.40
2022-11-22T22:08:30.511Z,69.30
2022-11-22T22:10:57.249Z,74.10
2022-11-22T22:13:23.860Z,71.00
2022-11-22T22:15:55.552Z,63.00
2022-11-22T22:18:22.093Z,63.60
2022-11-22T22:20:57.642Z,63.90
2022-11-22T22:23:24.066Z,64.00
2022-11-22T22:25:50.668Z,60.60
2022-11-22T22:28:17.159Z,56.40
2022-11-22T22:30:43.702Z,60.40
2022-11-22T22:33:10.114Z,55.60
2022-11-22T22:35:36.567Z,56.20
2022-11-22T22:38:03.212Z,55.60
2022-11-22T22:40:29.745Z,59.10
2022-11-22T22:42:58.030Z,53.90
2022-11-22T22:45:24.565Z,57.10
2022-11-22T22:47:51.005Z,57.90
2022-11-22T22:50:17.544Z,63.90
2022-11-22T22:52:43.982Z,73.40
2022-11-22T22:55:10.621Z,70.00
2022-11-22T22:57:37.168Z,80.10
2022-11-22T23:00:04.733Z,69.80
2022-11-22T23:02:31.197Z,62.60
2022-11-22T23:04:57.683Z,54.80
2022-11-22T23:07:24.158Z,49.50
2022-11-22T23:09:50.670Z,46.00
2022-11-22T23:12:17.066Z,42.80
2022-11-22T23:14:43.532Z,44.70
2022-11-22T23:17:10.111Z,42.40
2022-11-22T23:19:36.655Z,42.40
2022-11-22T23:22:04.193Z,47.40
2022-11-22T23:24:32.286Z,50.20
2022-11-22T23:26:59.138Z,59.90
2022-11-22T23:29:26.100Z,60.50
2022-11-22T23:31:52.553Z,62.00
2022-11-22T23:34:19.012Z,64.30
2022-11-22T23:36:45.519Z,69.70
2022-11-22T23:39:12.162Z,65.00
2022-11-22T23:41:38.632Z,65.60
2022-11-22T23:44:05.301Z,69.40
2022-11-22T23:46:31.893Z,69.40
2022-11-22T23:49:00.554Z,77.90
2022-11-22T23:51:28.707Z,88.20
2022-11-22T23:55:48.772Z,84.50
2022-11-22T23:58:15.306Z,79.60
